メインページ
METAR-TAF:

METAR-TAF

空港 :

イースター島, チリ

マタベリ国際空港

緯度: 27-09S, 経度: 109-25W, 海抜: 51m

現時点の気象観測

当レポートは37分前の21:00(UTC)に作成
の風 14kt
気温 26°C
湿度 70%
気圧 1022 hPa
視程10km以上
高度2000ftの雲は散在している
高度25000ftの雲は散在している

METAR: SCIP 232100Z 09014KT 9999 SCT020 SCT250 26/20 Q1022 NOSIG

時間: 16:37 (21:37 UTC)

予報

当レポートは5時間11分前の16:26(UTC)に作成
予報は23日の 18時(UTC)から 24日の 18時(UTC)まで有効
の風 10kt
視程10km以上
高度2000ftの雲は散在している
高度25000ftの雲は散在している
23日の 18時(UTC)から 23日の 22時(UTC)まで一時的に
東/北東の風 15kt
視程: 7000m
高度1800ftの千切れ雲あり
弱いにわか雨
24日の 02時(UTC)から 24日の 04時(UTC)まで徐々に
の風 15kt
高度2000ftの雲は散在している
24日の 10時(UTC)から 24日の 15時(UTC)まで一時的に
視程: 7000m
高度2000ftの千切れ雲あり
弱いにわか雨
24日の 16時(UTC)から 24日の 18時(UTC)まで徐々に
東/北東の風 15kt

TAF: SCIP 231626Z 2318/2418 09010KT 9999 SCT020 SCT250 TX27/2320Z TN22 /2410Z TEMPO 2318/2322 06015KT 7000 -SHRA BKN018 BECMG 2402/2404 09015KT SCT020 TEMPO 2410/2415 7000 -SHRA BKN020 BECMG 2416/2418 06015KT

4,000以上の空港の気象観測と天気予報(METAR報とTAF報)

利用可能な観測所は地図上に黄色い丸と赤い丸で示す。

丸の上にカーソルを重ねると観測所名を参照できる。

次にクリックすると気象観測と天気予報を参照できる。

マップの切り替え:黒色「×」印の緑ボタンをクリックして拡大、「-」印の緑ボタンをクリックして縮小、緑色の三角印をクリックして隣りの地図に切り替え


METAR-TAF: